Kezdőlap
METAR-TAF:

METAR-TAF

Repülőterek :

Udine, Olaszország

földrajzi szélesség: 45-59N, földrajzi hosszúság: 013-02E, magasság: 51 m

Jelenlegi meteorológiai megfigyelések

A jelentés 5 órával és 28 perccel ezelõtt készült, 14:55 UTC
Dél-délkeleti szél 4 kt
Hőmérséklet 14°C
Páratartalom 33%
Légköri nyomás 1017 hPa
Látótávolság 10 km, vagy több
Szórványos felhőzet 7000 lábon

METAR: LIPI 191455Z 16004KT 9999 SCT070 14/M02 Q1017 RMK SCT VIS MIN 9999 WIND THR06 22005KT WIND THR24 31002KT BLU

Idő: 21:23 (20:23 UTC)

Előrejelzés

A jelentés 9 órával és 23 perccel ezelõtt készült, 11:00 UTC
Az előrejelzés 19-én 12 óra UTC és 19-én 21 óra UTC között érvényes
Kelet-északkeleti szél 7 kt
Látótávolság 10 km, vagy több
Szórványos felhőzet 8000 lábon

TAF: LIPI 191100Z 1912/1921 06007KT 9999 SCT080

Meteorológiai megfigyelések és előrejelzések több, mint 4000 repülőtéren (METAR és TAF jelentéseket).

A térképen piros és sárga pontok jelzik az elérhető meteorológiai állomásokat.

Mozgassa az egeret a pont fölött, hogy megjelenjen az állomás neve.

Azután kattintson az időjárási megfigyelések és előrejelzések megtekintéséhez.

A térkép megváltoztatása: kattintson a fekete keresztel jelölt zöld gombra ráközelítéshez, a vonallal jelölt zöld gombra távolításhoz, vagy a zöld nyilakra a szomszédos térképek eléréséhez.


METAR-TAF: